Fallon Naval Air Station /Van Voorhis Field
KNFL : now visible

Airfield :











YOU CAN JOIN US ON...

 
LOGIN :

Register | Disclaimer

   EN    FR    IT 

 









Legend :    VFR   Marginal VFR   IFR   Intensive IFR   Very Intensive IFR
Visi :
Ceiling :
>= 8 km
>= 3000ft
5 to 8 km
1000 to 3000 ft
1500m to 5 km
500 to 1000 ft
800 to 1500m
200 to 500 ft
< 800m
< 200 ft
Symbols :   Thunderstorms  Fog  Heavy snow  Heavy precipitations  Wind > 20 kt






- Airport Elevation : 3934 ft


KNFL - Fallon Naval Air Station /Van Voorhis Field

CURRENT METAR :
  • 100658Z AUTO 00000KT 1/2SM FG VV001 03/02 A3009 RMK AO2 T00280022

EXPIRED METARs :
  • 100641Z AUTO 04004KT 1 3/4SM BR CLR 03/03 A3009 RMK AO2 T00330033
  • 100556Z AUTO 00000KT 10SM CLR 05/04 A3008 RMK AO2 SLP154 60003 T00500044 10094 20050 51012
  • 100456Z AUTO 35005KT 10SM SCT120 07/05 A3007 RMK AO2 SLP150 T00670050

TAF TAF KNFL
Valid from the 09 at 23:00 until the 10 at 23:00 UTC


0923/1023 17008KT 9999 VCSH SCT030 BKN050 OVC100 620509 641406 QNH2995INS
TEMPO 1000/1005 8000 -SHRA BR BKN030 OVC050
FM100600 VRB06KT 9999 VCSH SCT030 BKN050 BKN100 OVC250 620509 641406 QNH3000INS LAST NO AMDS AFT 1000 NEXT 1307 T03/1014Z T16/1023Z FS30123



MET'MAP, your aeronautical weather chart ! - Copyright ORBIFLY December 2007 - Disclaimer

ORBIFLY MET'MAP TEAM :

Programming & Development : Alexandra Zaïnal
Concept & original design : Baudouin d'Aumeries
Assistance for programming : Marc-Olivier Méhu
Technical & hardware support : Manuel Goepfert

Contact : metmap@orbifly.com




SOURCES & CREDITS :

   NOAA       Earth
Advisory